Time;durP1;ratioP1;P1;durP2;ratioP2;P2;SDS_P1;SDS_P2;PMS_P1;PMS_P2;Temp;Humidity;BMP_temperature;BMP_pressure;BME280_temperature;BME280_humidity;BME280_pressure;Samples;Min_cycle;Max_cycle;Signal;HPM_P1;HPM_P2
2023/02/03 00:01:41;;;;;;;3.92;2.30;;;5.60;99.90;;;4.43;100.00;98586.75;5093882;28;20398;-79
2023/02/03 00:04:07;;;;;;;5.13;2.40;;;5.50;99.90;;;4.55;100.00;98591.34;5094354;28;20405;-78
2023/02/03 00:06:34;;;;;;;4.50;2.50;;;5.60;99.90;;;4.68;100.00;98590.69;5094137;28;20433;-79
2023/02/03 00:09:00;;;;;;;2.65;2.25;;;5.70;99.90;;;4.46;100.00;98586.38;5094176;28;20935;-78
2023/02/03 00:11:29;;;;;;;4.10;2.05;;;5.60;99.90;;;4.48;100.00;98584.38;5093779;28;20394;-78
2023/02/03 00:13:55;;;;;;;2.88;2.20;;;5.50;99.90;;;4.48;100.00;98571.28;5094208;28;20462;-79
2023/02/03 00:16:21;;;;;;;2.53;1.80;;;5.50;99.90;;;4.45;100.00;98572.44;5093970;28;20485;-78
2023/02/03 00:18:47;;;;;;;2.40;2.20;;;5.50;99.90;;;4.64;100.00;98574.50;5093887;28;20769;-79
2023/02/03 00:21:14;;;;;;;3.22;2.10;;;5.60;99.90;;;4.67;100.00;98578.56;5093906;28;20406;-79
2023/02/03 00:23:41;;;;;;;2.33;1.80;;;5.60;99.90;;;4.64;100.00;98566.66;5093917;28;20437;-78
2023/02/03 00:26:08;;;;;;;2.92;1.83;;;5.60;99.90;;;4.47;100.00;98570.47;5093598;28;20458;-79
2023/02/03 00:28:34;;;;;;;6.00;2.13;;;5.50;99.90;;;4.38;100.00;98568.13;5093918;28;20393;-79
2023/02/03 00:31:00;;;;;;;4.35;1.90;;;5.40;99.90;;;4.57;100.00;98580.69;5075566;28;20413;-78
2023/02/03 00:33:26;;;;;;;3.63;2.00;;;5.60;99.90;;;4.46;100.00;98579.31;5093623;28;20496;-78
2023/02/03 00:35:52;;;;;;;2.55;2.00;;;5.50;99.90;;;4.38;100.00;98575.97;5093626;28;20405;-78
2023/02/03 00:38:17;;;;;;;4.05;2.00;;;5.50;99.90;;;4.45;100.00;98574.25;5093488;28;20493;-78
2023/02/03 00:40:51;;;;;;;2.63;1.88;;;5.50;99.90;;;4.34;100.00;98578.16;5093603;28;20416;-78
2023/02/03 00:43:17;;;;;;;3.20;1.90;;;5.40;99.90;;;4.27;100.00;98577.28;5093308;28;20461;-78
2023/02/03 00:45:43;;;;;;;1.98;1.83;;;5.40;99.90;;;4.32;100.00;98592.44;5093609;28;20799;-78
2023/02/03 00:48:08;;;;;;;4.67;2.20;;;5.40;99.90;;;4.32;100.00;98589.81;5093392;28;20412;-78
2023/02/03 00:50:34;;;;;;;3.78;1.95;;;5.40;99.90;;;4.36;100.00;98591.09;5093511;28;20489;-78
2023/02/03 00:53:00;;;;;;;4.85;1.80;;;5.40;99.90;;;4.51;100.00;98586.66;5093159;28;20398;-78
2023/02/03 00:55:26;;;;;;;2.50;1.90;;;5.50;99.90;;;4.38;100.00;98594.31;5093339;28;20399;-78
2023/02/03 00:57:54;;;;;;;2.28;1.90;;;5.50;99.90;;;4.34;100.00;98588.66;5092851;28;20794;-78
2023/02/03 01:00:20;;;;;;;3.58;1.85;;;5.40;99.90;;;4.61;100.00;98590.59;5093110;28;20390;-78
2023/02/03 01:02:46;;;;;;;2.33;1.90;;;5.60;99.90;;;4.41;100.00;98593.97;5092755;28;20394;-77
2023/02/03 01:05:12;;;;;;;4.50;2.00;;;5.50;99.90;;;4.62;100.00;98591.41;5092983;28;20430;-78
2023/02/03 01:07:38;;;;;;;4.10;1.97;;;5.60;99.90;;;4.48;100.00;98593.06;5092974;28;20499;-78
2023/02/03 01:10:06;;;;;;;2.60;2.17;;;5.60;99.90;;;4.46;100.00;98592.44;5093051;28;21099;-78
2023/02/03 01:12:32;;;;;;;5.95;2.17;;;5.50;99.90;;;4.50;100.00;98588.47;5092685;28;20798;-78
2023/02/03 01:14:59;;;;;;;3.00;2.00;;;5.60;99.90;;;4.56;100.00;98590.34;5092910;28;20395;-78
2023/02/03 01:17:25;;;;;;;3.90;2.10;;;5.60;99.90;;;4.52;100.00;98589.06;5092690;28;20817;-78
2023/02/03 01:19:52;;;;;;;2.45;2.25;;;5.50;99.90;;;4.44;100.00;98570.00;5092805;28;20863;-78
2023/02/03 01:22:18;;;;;;;2.92;2.10;;;5.50;99.90;;;4.41;100.00;98544.97;5092494;28;20398;-78
2023/02/03 01:24:44;;;;;;;5.28;2.20;;;5.40;99.90;;;4.27;100.00;98536.16;5092731;28;20402;-78
2023/02/03 01:27:10;;;;;;;4.30;2.30;;;5.40;99.90;;;4.21;100.00;98542.09;5092441;28;20402;-78
2023/02/03 01:29:36;;;;;;;3.28;2.40;;;5.30;99.90;;;4.39;100.00;98538.28;5092526;28;20447;-78
2023/02/03 01:32:03;;;;;;;3.55;2.40;;;5.40;99.90;;;4.25;100.00;98553.84;5092188;28;20550;-78
2023/02/03 01:34:29;;;;;;;4.57;2.30;;;5.40;99.90;;;4.28;100.00;98556.09;5074222;28;20779;-78
2023/02/03 01:36:55;;;;;;;2.97;2.30;;;5.40;99.90;;;4.26;100.00;98552.88;5092300;28;20402;-78
2023/02/03 01:39:21;;;;;;;3.80;2.40;;;5.30;99.90;;;4.23;100.00;98547.16;5092118;28;20420;-78
2023/02/03 01:41:47;;;;;;;3.42;2.50;;;5.30;99.90;;;4.15;100.00;98544.63;5091880;28;20401;-78
2023/02/03 01:44:44;;;;;;;5.10;2.53;;;5.20;99.90;;;4.14;100.00;98538.56;5092261;28;20405;-78
2023/02/03 01:47:26;;;;;;;4.35;2.47;;;5.30;99.90;;;4.09;100.00;98543.56;5092115;28;20457;-78
2023/02/03 01:50:01;;;;;;;8.90;2.72;;;5.20;99.90;;;4.03;100.00;98549.53;5092298;28;20454;-78
2023/02/03 01:52:27;;;;;;;3.35;2.60;;;5.20;99.90;;;4.17;100.00;98555.75;5091929;28;20419;-78
2023/02/03 01:54:57;;;;;;;4.20;2.72;;;5.20;99.90;;;4.36;100.00;98557.03;5092184;28;20793;-78
2023/02/03 01:57:31;;;;;;;4.72;2.70;;;5.30;99.90;;;4.18;100.00;98563.44;5073637;28;20421;-78
2023/02/03 01:59:59;;;;;;;6.82;3.00;;;5.30;99.90;;;4.36;100.00;98564.88;5091999;28;20401;-78
2023/02/03 02:02:27;;;;;;;5.83;2.90;;;5.40;99.90;;;4.37;100.00;98566.47;5091590;28;20400;-78
2023/02/03 02:05:00;;;;;;;4.90;2.83;;;5.50;99.90;;;4.28;100.00;98558.72;5091815;28;20402;-78
2023/02/03 02:07:27;;;;;;;7.60;3.13;;;5.40;99.90;;;4.37;100.00;98542.91;5091678;28;20483;-78
2023/02/03 02:09:55;;;;;;;6.70;3.20;;;5.40;99.90;;;4.39;100.00;98533.03;5091231;28;20397;-78
2023/02/03 02:12:21;;;;;;;8.38;3.25;;;5.40;99.90;;;4.25;100.00;98532.06;5091470;28;20398;-78
2023/02/03 02:14:47;;;;;;;6.00;3.40;;;5.40;99.90;;;4.29;100.00;98518.41;5091782;28;20546;-78
2023/02/03 02:17:33;;;;;;;5.18;3.25;;;5.40;99.90;;;4.27;100.00;98502.06;5091812;28;20930;-78
2023/02/03 02:20:33;;;;;;;5.82;3.00;;;5.30;99.90;;;4.22;100.00;98480.84;5091759;28;20457;-78
2023/02/03 02:23:37;;;;;;;7.53;3.28;;;5.30;99.90;;;4.22;100.00;98459.06;5091192;28;20920;-78
2023/02/03 02:26:50;;;;;;;6.57;3.25;;;5.30;99.90;;;4.20;100.00;98474.16;5057287;28;20566;-78
2023/02/03 02:30:11;;;;;;;5.78;3.65;;;5.30;99.90;;;4.21;100.00;98492.31;5091293;28;20568;-77
2023/02/03 02:32:55;;;;;;;6.93;3.58;;;5.30;99.90;;;4.21;100.00;98487.06;5090850;28;20405;-78
2023/02/03 02:35:37;;;;;;;7.47;3.53;;;5.30;99.90;;;4.21;100.00;98489.69;5091248;28;20398;-78
2023/02/03 02:38:14;;;;;;;5.18;3.47;;;5.30;99.90;;;4.12;100.00;98488.19;5091007;28;20468;-78
2023/02/03 02:40:50;;;;;;;7.68;4.32;;;5.30;99.90;;;4.37;100.00;98479.97;5091087;28;20397;-78
2023/02/03 02:43:22;;;;;;;7.38;3.50;;;5.40;99.90;;;4.18;100.00;98476.16;5090809;28;20394;-78
2023/02/03 02:45:51;;;;;;;5.55;3.80;;;5.30;99.90;;;4.28;100.00;98466.97;5091098;28;20475;-78
2023/02/03 02:48:25;;;;;;;7.20;3.28;;;5.30;99.90;;;4.20;100.00;98454.03;5091043;28;20390;-78
2023/02/03 02:50:55;;;;;;;7.10;3.80;;;5.30;99.90;;;4.07;100.00;98461.69;5072908;28;20453;-78
2023/02/03 02:53:26;;;;;;;10.70;4.30;;;5.20;99.90;;;4.10;100.00;98487.56;5090857;28;20421;-77
2023/02/03 02:55:55;;;;;;;5.95;3.60;;;5.20;99.90;;;4.17;100.00;98488.44;5091107;28;20401;-78
2023/02/03 02:58:23;;;;;;;5.77;3.40;;;5.30;99.90;;;4.18;100.00;98497.13;5090905;28;20422;-78
2023/02/03 03:00:50;;;;;;;6.88;3.65;;;5.30;99.90;;;4.21;100.00;98502.00;5089729;28;20431;-78
2023/02/03 03:03:18;;;;;;;6.05;3.20;;;5.30;99.90;;;4.22;100.00;98496.56;5074527;28;20829;-78
2023/02/03 03:05:51;;;;;;;6.87;3.43;;;5.30;99.90;;;4.44;100.00;98499.22;5085132;28;20804;-78
2023/02/03 03:08:21;;;;;;;7.40;3.20;;;5.50;99.90;;;4.34;100.00;98491.66;5090679;28;20566;-78
2023/02/03 03:10:49;;;;;;;7.15;3.03;;;5.40;99.90;;;4.26;100.00;98491.78;5090819;28;20445;-78
2023/02/03 03:13:22;;;;;;;3.10;2.80;;;5.40;99.90;;;4.40;100.00;98485.69;5090538;28;20489;-78
2023/02/03 03:15:51;;;;;;;4.40;2.80;;;5.50;99.90;;;4.26;100.00;98495.22;5090745;28;20591;-79
2023/02/03 03:18:23;;;;;;;5.32;3.00;;;5.40;99.90;;;4.33;100.00;98491.84;5090650;28;20413;-78
2023/02/03 03:20:54;;;;;;;8.18;2.78;;;5.40;99.90;;;4.33;100.00;98481.38;5090610;28;20528;-78
2023/02/03 03:23:26;;;;;;;5.22;2.70;;;5.40;99.90;;;4.34;100.00;98488.22;5089865;28;20397;-78
2023/02/03 03:25:59;;;;;;;3.60;2.40;;;5.40;99.90;;;4.32;100.00;98490.22;5090770;28;20406;-78
2023/02/03 03:28:37;;;;;;;3.28;2.30;;;5.40;99.90;;;4.32;100.00;98483.16;5090588;28;20449;-78
2023/02/03 03:31:03;;;;;;;3.90;2.20;;;5.40;99.90;;;4.24;100.00;98472.78;5090510;28;20413;-78
2023/02/03 03:33:29;;;;;;;5.82;2.20;;;5.40;99.90;;;4.18;100.00;98482.22;5090326;28;20437;-78
2023/02/03 03:36:04;;;;;;;3.83;2.53;;;5.30;99.90;;;4.20;100.00;98484.66;5090641;28;20398;-78
2023/02/03 03:38:38;;;;;;;5.50;2.53;;;5.30;99.90;;;4.18;100.00;98497.13;5090406;28;20418;-78
2023/02/03 03:41:12;;;;;;;4.35;2.42;;;5.30;99.90;;;4.15;100.00;98506.16;5090552;28;20486;-78
2023/02/03 03:43:42;;;;;;;3.85;2.45;;;5.20;99.90;;;4.12;100.00;98503.09;5090402;28;20461;-78
2023/02/03 03:46:13;;;;;;;5.13;2.30;;;5.30;99.90;;;4.10;100.00;98495.41;5090394;28;20482;-78
2023/02/03 03:48:46;;;;;;;4.80;2.50;;;5.20;99.90;;;4.21;100.00;98515.09;5090372;28;20488;-78
2023/02/03 03:51:19;;;;;;;5.65;2.30;;;5.30;99.90;;;4.37;100.00;98527.16;5090573;28;20450;-78
2023/02/03 03:53:49;;;;;;;2.75;2.08;;;5.50;99.90;;;4.33;100.00;98529.34;5090286;28;20461;-78
2023/02/03 03:56:23;;;;;;;4.30;2.20;;;5.40;99.90;;;4.29;100.00;98536.75;5090295;28;20468;-78
2023/02/03 03:58:51;;;;;;;3.93;1.97;;;5.40;99.90;;;4.34;100.00;98541.47;5090261;28;20485;-78
2023/02/03 04:01:19;;;;;;;4.60;2.00;;;5.40;99.90;;;4.29;100.00;98538.56;5090039;28;20441;-79
2023/02/03 04:03:49;;;;;;;2.90;2.10;;;5.40;99.90;;;4.23;100.00;98547.16;5090202;28;20398;-78
2023/02/03 04:06:16;;;;;;;3.70;2.13;;;5.40;99.90;;;4.26;100.00;98558.09;5090290;28;20542;-78
2023/02/03 04:08:42;;;;;;;4.20;2.10;;;5.40;99.90;;;4.25;100.00;98563.53;5090188;28;20849;-78
2023/02/03 04:11:08;;;;;;;2.45;2.10;;;5.40;99.90;;;4.22;100.00;98551.59;5090257;28;20840;-78
2023/02/03 04:13:34;;;;;;;4.15;2.10;;;5.30;99.90;;;4.39;100.00;98548.78;5089935;28;20467;-78
2023/02/03 04:16:00;;;;;;;3.35;2.03;;;5.40;99.90;;;4.39;100.00;98544.34;5088893;28;20741;-78
2023/02/03 04:18:26;;;;;;;4.75;1.92;;;5.40;99.90;;;4.23;100.00;98541.91;5089898;28;20902;-77
2023/02/03 04:20:51;;;;;;;3.20;2.05;;;5.30;99.90;;;4.21;100.00;98543.94;5090013;28;20397;-77
2023/02/03 04:23:19;;;;;;;3.00;1.90;;;5.30;99.90;;;4.16;100.00;98557.56;5089821;28;20437;-77
2023/02/03 04:25:45;;;;;;;3.00;1.90;;;5.30;99.90;;;4.32;100.00;98553.94;5090050;28;20405;-77
2023/02/03 04:28:10;;;;;;;4.57;1.95;;;5.40;99.90;;;4.27;100.00;98551.06;5090005;28;20401;-77
2023/02/03 04:30:36;;;;;;;1.95;1.70;;;5.40;99.90;;;4.16;100.00;98547.06;5089997;28;20398;-77
2023/02/03 04:33:02;;;;;;;7.55;1.90;;;5.30;99.90;;;4.13;100.00;98536.16;5090245;28;20420;-76
2023/02/03 04:35:28;;;;;;;3.22;1.92;;;5.30;99.90;;;3.99;100.00;98529.91;5093741;28;20390;-76
2023/02/03 04:37:54;;;;;;;4.83;2.00;;;5.20;99.90;;;4.02;100.00;98520.88;5093604;28;20524;-76
2023/02/03 04:40:21;;;;;;;3.78;1.95;;;5.10;99.90;;;3.91;100.00;98531.84;5093628;28;20437;-75
2023/02/03 04:42:47;;;;;;;3.30;1.90;;;5.00;99.90;;;3.89;100.00;98530.19;5093228;28;20871;-75
2023/02/03 04:45:13;;;;;;;2.60;2.10;;;5.00;99.90;;;3.85;100.00;98530.72;5093026;28;20409;-74
2023/02/03 04:47:39;;;;;;;3.42;2.17;;;5.00;99.90;;;3.76;100.00;98534.44;5098497;22;20431;-73
2023/02/03 04:50:07;;;;;;;2.38;2.00;;;4.90;99.90;;;3.64;100.00;98536.66;5068192;28;20424;-73
2023/02/03 04:52:33;;;;;;;3.30;2.20;;;4.80;99.90;;;3.61;100.00;98534.41;5078019;28;20467;-73
2023/02/03 04:54:59;;;;;;;3.85;2.40;;;4.80;99.90;;;3.68;100.00;98537.13;5054661;28;20511;-73
2023/02/03 04:57:26;;;;;;;3.55;2.45;;;4.80;99.90;;;3.67;100.00;98538.13;5064555;28;20433;-74
2023/02/03 04:59:52;;;;;;;3.20;2.60;;;4.80;99.90;;;3.59;100.00;98523.31;5052866;28;20462;-73
2023/02/03 05:02:17;;;;;;;4.28;2.65;;;4.70;99.90;;;3.56;100.00;98509.75;5053686;28;20417;-73
2023/02/03 05:04:43;;;;;;;4.20;2.60;;;4.70;99.90;;;3.57;100.00;98506.16;5052580;28;20424;-74
2023/02/03 05:07:09;;;;;;;3.22;2.53;;;4.70;99.90;;;3.55;100.00;98500.28;5052019;28;20476;-74
2023/02/03 05:09:35;;;;;;;5.38;2.63;;;4.70;99.90;;;3.56;100.00;98507.13;5051543;28;20762;-73
2023/02/03 05:12:01;;;;;;;4.80;2.60;;;4.70;99.90;;;3.56;100.00;98501.91;5048713;28;20417;-74
2023/02/03 05:14:28;;;;;;;4.93;2.78;;;4.70;99.90;;;3.58;100.00;98507.78;5048192;28;20409;-74
2023/02/03 05:16:54;;;;;;;4.97;2.80;;;4.80;99.90;;;3.71;100.00;98510.59;5052162;28;20916;-74
2023/02/03 05:19:20;;;;;;;5.20;2.80;;;4.80;99.90;;;3.73;100.00;98522.50;5048481;28;20425;-73
2023/02/03 05:21:46;;;;;;;3.33;2.58;;;4.90;99.90;;;3.70;100.00;98535.13;5051187;28;20413;-74
2023/02/03 05:24:12;;;;;;;3.78;2.75;;;4.90;99.90;;;3.72;100.00;98536.59;5051713;28;20492;-74
2023/02/03 05:26:38;;;;;;;3.80;2.60;;;4.80;99.90;;;3.83;100.00;98545.81;5047135;28;20932;-74
2023/02/03 05:29:04;;;;;;;5.18;2.67;;;4.90;99.90;;;3.75;100.00;98545.91;5046702;28;20425;-74
2023/02/03 05:31:32;;;;;;;4.40;2.90;;;4.90;99.90;;;3.80;100.00;98535.69;5049590;28;20421;-74
2023/02/03 05:33:58;;;;;;;4.30;2.67;;;4.90;99.90;;;3.85;100.00;98531.53;5052108;28;20432;-74
2023/02/03 05:36:24;;;;;;;3.60;2.80;;;5.00;99.90;;;3.83;100.00;98536.13;5049695;28;20463;-74
2023/02/03 05:38:50;;;;;;;3.08;2.78;;;4.90;99.90;;;3.83;100.00;98556.31;5038890;28;20943;-74
2023/02/03 05:44:00;;;;;;;6.88;2.95;;;5.00;99.90;;;3.72;100.00;98548.88;5050729;28;20443;-74
2023/02/03 05:46:26;;;;;;;5.18;2.63;;;4.90;99.90;;;3.67;100.00;98552.03;5050684;28;20443;-74
2023/02/03 05:48:53;;;;;;;4.97;3.10;;;4.80;99.90;;;3.68;100.00;98547.63;5051438;28;20440;-74
2023/02/03 05:51:19;;;;;;;4.93;2.70;;;4.80;99.90;;;3.79;100.00;98547.97;5051087;28;20401;-75
2023/02/03 05:53:45;;;;;;;5.27;2.87;;;4.90;99.90;;;3.72;100.00;98549.69;5051772;28;20397;-74
2023/02/03 05:56:10;;;;;;;5.93;3.03;;;4.90;99.90;;;3.67;100.00;98548.59;5052016;28;20767;-74
2023/02/03 05:58:36;;;;;;;5.57;3.40;;;4.80;99.90;;;3.72;100.00;98533.16;5051742;28;20421;-73
2023/02/03 06:01:02;;;;;;;3.40;2.90;;;4.90;99.90;;;3.73;100.00;98529.56;5048961;28;20935;-74
2023/02/03 06:03:28;;;;;;;3.47;2.85;;;4.80;99.90;;;3.73;100.00;98532.97;5051329;28;20397;-74
2023/02/03 06:05:55;;;;;;;7.43;3.42;;;4.80;99.90;;;3.80;100.00;98528.66;5050068;28;20438;-75
2023/02/03 06:08:21;;;;;;;4.15;2.78;;;4.90;99.90;;;3.71;100.00;98529.72;5048725;28;20756;-73
2023/02/03 06:10:47;;;;;;;7.85;3.10;;;4.80;99.90;;;3.60;100.00;98527.56;5049773;28;20476;-73
2023/02/03 06:13:15;;;;;;;9.87;3.17;;;4.70;99.90;;;3.67;100.00;98518.00;5032879;28;20418;-73
2023/02/03 06:15:41;;;;;;;6.78;3.25;;;4.80;99.90;;;3.65;100.00;98514.75;5051044;28;20409;-74
2023/02/03 06:18:08;;;;;;;6.53;3.13;;;4.80;99.90;;;3.75;100.00;98496.97;5050734;28;20929;-73
2023/02/03 06:20:34;;;;;;;6.80;3.22;;;4.80;99.90;;;3.74;100.00;98508.44;5050928;28;20440;-73
2023/02/03 06:23:01;;;;;;;3.30;2.80;;;4.90;99.90;;;3.68;100.00;98501.31;5032802;28;20396;-73
2023/02/03 06:25:30;;;;;;;7.93;3.38;;;4.80;99.90;;;3.70;100.00;98509.75;5053087;28;20456;-73
2023/02/03 06:27:56;;;;;;;4.20;2.95;;;4.80;99.90;;;3.70;100.00;98516.81;5048611;28;20406;-73
2023/02/03 06:30:22;;;;;;;3.90;2.90;;;4.80;99.90;;;3.74;100.00;98523.31;5049784;28;20408;-73
2023/02/03 06:32:48;;;;;;;5.53;3.10;;;4.90;99.90;;;3.71;100.00;98531.53;5049588;28;20405;-74
2023/02/03 06:35:15;;;;;;;7.50;3.13;;;4.80;99.90;;;3.66;100.00;98516.38;5050200;28;20456;-74
2023/02/03 06:37:41;;;;;;;5.75;2.65;;;4.80;99.90;;;3.65;100.00;98519.16;5050685;28;20405;-74
2023/02/03 06:40:10;;;;;;;4.63;3.28;;;4.80;99.90;;;3.73;100.00;98519.91;5050318;28;20413;-74
2023/02/03 06:42:36;;;;;;;6.47;3.00;;;4.80;99.90;;;3.74;100.00;98518.91;5050038;28;20397;-74
2023/02/03 06:45:03;;;;;;;5.95;3.47;;;4.90;99.90;;;3.66;100.00;98523.41;5050341;28;20416;-74
2023/02/03 06:47:29;;;;;;;7.93;3.58;;;4.80;99.90;;;3.68;100.00;98519.63;5050174;28;20412;-74
2023/02/03 06:49:54;;;;;;;4.33;3.17;;;4.80;99.90;;;3.73;100.00;98512.03;5050372;28;20398;-74
2023/02/03 06:52:20;;;;;;;6.38;3.47;;;4.90;99.90;;;3.74;100.00;98500.56;5051222;28;20406;-75
2023/02/03 06:54:46;;;;;;;5.40;3.28;;;4.90;99.90;;;3.80;100.00;98499.84;5050744;28;20407;-74
2023/02/03 06:57:13;;;;;;;6.05;3.50;;;4.90;99.90;;;3.84;100.00;98502.91;5050437;28;20592;-74
2023/02/03 06:59:39;;;;;;;8.23;3.70;;;5.00;99.90;;;3.82;100.00;98491.81;5050164;28;20918;-75
2023/02/03 07:02:06;;;;;;;7.20;3.30;;;5.00;99.90;;;3.87;100.00;98495.50;5045976;28;20870;-76
2023/02/03 07:04:31;;;;;;;5.90;3.05;;;5.00;99.90;;;3.91;100.00;98497.78;5049112;28;20429;-75
2023/02/03 07:06:57;;;;;;;7.85;2.90;;;5.00;99.90;;;3.97;100.00;98502.28;5052713;28;20781;-75
2023/02/03 07:09:23;;;;;;;6.07;3.37;;;5.00;99.90;;;3.96;100.00;98501.47;5051425;28;20481;-76
2023/02/03 07:11:49;;;;;;;5.20;3.28;;;5.10;99.90;;;3.91;100.00;98488.09;5051656;28;20528;-76
2023/02/03 07:14:17;;;;;;;9.23;3.65;;;5.00;99.90;;;3.81;100.00;98488.38;5048559;28;20630;-75
2023/02/03 07:16:43;;;;;;;10.25;3.80;;;5.00;99.90;;;3.68;100.00;98479.53;5043488;28;20421;-75
2023/02/03 07:19:09;;;;;;;6.37;3.57;;;4.80;99.90;;;3.83;100.00;98491.63;5041575;28;20524;-76
2023/02/03 07:21:34;;;;;;;6.43;3.67;;;4.90;99.90;;;3.74;100.00;98471.78;5048579;28;20419;-76
2023/02/03 07:24:01;;;;;;;7.75;3.70;;;4.90;99.90;;;3.69;100.00;98475.91;5054353;28;20453;-76
2023/02/03 07:26:27;;;;;;;6.03;3.70;;;4.80;99.90;;;3.79;100.00;98477.28;5055143;28;20511;-79
2023/02/03 07:28:53;;;;;;;4.85;3.63;;;4.90;99.90;;;3.85;100.00;98479.16;5054570;28;20397;-75
2023/02/03 07:31:21;;;;;;;7.13;3.83;;;5.00;99.90;;;3.86;100.00;98485.22;5054976;28;20439;-76
2023/02/03 07:33:47;;;;;;;8.98;4.20;;;5.00;99.90;;;3.81;100.00;98482.34;5060710;28;20428;-75
2023/02/03 07:36:13;;;;;;;7.95;4.00;;;5.00;99.90;;;3.83;100.00;98486.38;5055571;28;20415;-72
2023/02/03 07:38:39;;;;;;;6.43;3.73;;;5.00;99.90;;;3.75;100.00;98486.50;5053452;28;20405;-75
2023/02/03 07:41:05;;;;;;;5.78;4.00;;;4.90;99.90;;;3.88;100.00;98491.09;5053491;28;20420;-73
2023/02/03 07:43:31;;;;;;;6.60;4.00;;;4.90;99.90;;;3.77;100.00;98502.81;5045241;28;20471;-74
2023/02/03 07:45:58;;;;;;;10.65;4.30;;;4.90;99.90;;;3.68;100.00;98508.34;5048483;28;20424;-74
2023/02/03 07:48:25;;;;;;;10.77;4.43;;;4.80;99.90;;;3.79;100.00;98518.34;5048346;28;20974;-74
2023/02/03 07:50:51;;;;;;;10.48;3.83;;;4.90;99.90;;;3.79;100.00;98529.66;5047887;28;20393;-74
2023/02/03 07:53:17;;;;;;;7.45;4.15;;;4.90;99.90;;;3.77;100.00;98525.56;5048373;28;20403;-74
2023/02/03 07:55:43;;;;;;;9.33;4.30;;;4.90;99.90;;;3.81;100.00;98527.66;5048606;28;20850;-74
2023/02/03 07:58:09;;;;;;;6.18;4.60;;;4.90;99.90;;;3.79;100.00;98542.75;5047941;28;20449;-73
2023/02/03 08:00:35;;;;;;;11.88;4.60;;;4.90;99.90;;;3.76;100.00;98535.22;5048118;28;20866;-73
2023/02/03 08:03:01;;;;;;;6.85;4.30;;;4.90;99.90;;;3.86;100.00;98542.84;5045382;28;20421;-73
2023/02/03 08:05:29;;;;;;;11.60;4.75;;;4.90;99.90;;;3.76;100.00;98550.94;5048284;28;20474;-73
2023/02/03 08:07:55;;;;;;;11.18;4.90;;;4.90;99.90;;;3.81;100.00;98572.19;5044538;28;20492;-73
2023/02/03 08:10:21;;;;;;;9.67;5.43;;;4.90;99.90;;;3.76;100.00;98563.25;5050124;28;20481;-73
2023/02/03 08:12:47;;;;;;;9.27;4.88;;;4.90;99.90;;;3.82;100.00;98552.88;5047784;28;20413;-73
2023/02/03 08:15:13;;;;;;;11.57;5.43;;;5.00;99.90;;;3.84;100.00;98558.72;5051344;28;20397;-73
2023/02/03 08:17:40;;;;;;;12.50;5.05;;;4.90;99.90;;;3.77;100.00;98557.00;5051024;28;20409;-73
2023/02/03 08:20:07;;;;;;;10.35;5.35;;;4.90;99.90;;;3.75;100.00;98556.38;5051633;28;20418;-73
2023/02/03 08:22:35;;;;;;;13.95;5.90;;;4.90;99.90;;;3.88;100.00;98556.56;5055075;28;20417;-73
2023/02/03 08:25:00;;;;;;;10.98;5.10;;;5.00;99.90;;;3.91;100.00;98556.19;5047168;28;20437;-73
2023/02/03 08:27:26;;;;;;;12.37;5.90;;;5.10;99.90;;;3.93;100.00;98559.44;5053474;28;20416;-73
2023/02/03 08:29:52;;;;;;;12.90;5.63;;;5.10;99.90;;;3.96;100.00;98585.31;5055082;28;20408;-73
2023/02/03 08:32:21;;;;;;;12.70;6.25;;;5.10;99.90;;;3.97;100.00;98580.88;5053351;28;20932;-73
2023/02/03 08:34:47;;;;;;;14.50;6.00;;;5.10;99.90;;;3.92;100.00;98573.53;5057987;28;20428;-73
2023/02/03 08:37:17;;;;;;;14.15;6.38;;;5.00;99.90;;;3.81;100.00;98568.75;5052272;28;20409;-73
2023/02/03 08:39:44;;;;;;;20.95;6.47;;;4.90;99.90;;;3.79;100.00;98566.31;5053458;28;20431;-72
2023/02/03 08:42:10;;;;;;;13.63;6.30;;;4.90;99.90;;;3.80;100.00;98559.25;5052142;28;20793;-73
2023/02/03 08:44:38;;;;;;;14.70;6.97;;;4.90;99.90;;;3.92;100.00;98572.72;5053334;28;20413;-73
2023/02/03 08:47:05;;;;;;;13.80;6.32;;;5.00;99.90;;;3.97;100.00;98578.25;5052030;28;20409;-73
2023/02/03 08:49:32;;;;;;;13.00;6.00;;;5.00;99.90;;;3.88;100.00;98577.53;5053220;28;20467;-73
2023/02/03 08:51:58;;;;;;;12.75;5.95;;;5.00;99.90;;;3.99;100.00;98579.69;5071479;28;20403;-73
2023/02/03 08:54:25;;;;;;;12.75;6.60;;;5.00;99.90;;;3.97;100.00;98578.25;5061656;28;20405;-73
2023/02/03 08:56:52;;;;;;;14.55;6.25;;;5.10;99.90;;;4.03;100.00;98565.25;5051975;28;20406;-73
2023/02/03 08:59:18;;;;;;;13.93;5.90;;;5.20;99.90;;;4.20;100.00;98571.94;5051683;28;20413;-73
2023/02/03 09:01:47;;;;;;;15.60;6.57;;;5.30;99.90;;;4.17;100.00;98568.84;5053222;28;20920;-74
2023/02/03 09:04:17;;;;;;;16.45;6.32;;;5.30;99.90;;;4.03;100.00;98574.91;5056795;28;20450;-72
2023/02/03 09:06:43;;;;;;;13.83;6.70;;;5.10;99.90;;;4.00;100.00;98576.06;5070696;28;20776;-73
2023/02/03 09:09:09;;;;;;;15.02;6.43;;;5.10;99.90;;;4.12;100.00;98573.84;5037607;28;20405;-73
2023/02/03 09:11:35;;;;;;;13.53;6.00;;;5.20;99.90;;;4.13;100.00;98554.50;5051397;28;20484;-73
2023/02/03 09:14:02;;;;;;;12.90;6.40;;;5.20;99.90;;;4.12;100.00;98560.72;5051781;28;20528;-73
2023/02/03 09:16:29;;;;;;;14.80;6.28;;;5.20;99.90;;;4.11;100.00;98564.34;5051424;28;20417;-73
2023/02/03 09:18:55;;;;;;;14.30;6.65;;;5.20;99.90;;;4.19;100.00;98561.63;5054376;28;20776;-73
2023/02/03 09:21:21;;;;;;;17.23;6.57;;;5.30;99.90;;;4.13;100.00;98544.03;5060298;28;20769;-73
2023/02/03 09:23:47;;;;;;;12.40;5.75;;;5.20;99.90;;;4.13;100.00;98544.03;5070587;28;20406;-72
2023/02/03 09:26:14;;;;;;;13.10;5.60;;;5.20;99.90;;;4.26;100.00;98546.81;5066890;28;20486;-72
2023/02/03 09:28:40;;;;;;;14.45;5.82;;;5.30;99.90;;;4.35;100.00;98544.91;5063596;28;20409;-73
2023/02/03 09:31:10;;;;;;;10.88;5.50;;;5.40;99.90;;;4.37;100.00;98553.38;5051100;28;20413;-73
2023/02/03 09:33:36;;;;;;;12.35;5.43;;;5.40;99.90;;;4.54;100.00;98553.00;5051810;28;20509;-73
2023/02/03 09:36:07;;;;;;;12.40;5.43;;;5.60;99.90;;;4.72;100.00;98550.00;5052141;28;20417;-73
2023/02/03 09:38:34;;;;;;;13.60;5.10;;;5.80;99.90;;;4.59;100.00;98549.81;5050583;28;20409;-75
2023/02/03 09:41:12;;;;;;;9.55;4.60;;;5.70;99.90;;;4.78;100.00;98558.91;5050919;28;20421;-75
2023/02/03 09:43:45;;;;;;;9.98;4.30;;;5.80;99.90;;;4.80;100.00;98565.63;5065206;28;20411;-74
2023/02/03 09:46:18;;;;;;;11.77;4.47;;;5.90;99.90;;;4.67;100.00;98574.13;5069202;28;20417;-74
2023/02/03 09:48:52;;;;;;;10.02;4.30;;;5.80;99.90;;;4.67;100.00;98570.69;5054369;28;20809;-73
2023/02/03 09:51:22;;;;;;;8.15;4.70;;;5.70;99.90;;;4.64;100.00;98566.66;5050884;28;20397;-74
2023/02/03 09:53:57;;;;;;;11.15;4.40;;;5.70;99.90;;;4.66;100.00;98571.72;5049891;28;20653;-73
2023/02/03 09:56:28;;;;;;;8.07;4.32;;;5.70;99.90;;;4.74;100.00;98574.19;5049372;28;20400;-73
2023/02/03 09:58:54;;;;;;;7.95;3.88;;;5.80;99.90;;;4.85;100.00;98563.25;5050093;28;20414;-73
2023/02/03 10:01:27;;;;;;;9.48;3.80;;;5.90;99.90;;;4.92;100.00;98558.88;5049425;28;20409;-72
2023/02/03 10:04:03;;;;;;;9.53;3.67;;;6.00;99.90;;;4.92;100.00;98551.00;5046521;28;20461;-73
2023/02/03 10:06:36;;;;;;;12.07;3.20;;;6.00;99.90;;;5.02;100.00;98550.69;5049840;28;20401;-73
2023/02/03 10:09:27;;;;;;;6.28;3.40;;;6.10;99.90;;;5.13;100.00;98537.06;5048490;28;20402;-73
2023/02/03 10:12:28;;;;;;;8.38;3.40;;;6.10;99.90;;;5.11;100.00;98522.53;5049054;28;20425;-73
2023/02/03 10:15:14;;;;;;;6.60;3.10;;;6.20;99.90;;;5.02;100.00;98540.22;5042512;28;20578;-73
2023/02/03 10:17:47;;;;;;;6.78;2.78;;;6.00;99.90;;;4.98;100.00;98531.06;5047704;28;20946;-73
2023/02/03 10:20:20;;;;;;;3.83;2.60;;;6.10;99.90;;;5.00;100.00;98545.63;5042876;28;20779;-73
2023/02/03 10:22:53;;;;;;;6.25;3.25;;;6.10;99.90;;;5.02;100.00;98555.94;5039425;28;20495;-73
2023/02/03 10:25:32;;;;;;;5.93;3.00;;;6.10;99.90;;;5.11;100.00;98567.16;5041052;28;20504;-73
2023/02/03 10:28:03;;;;;;;7.18;2.50;;;6.20;99.90;;;5.09;100.00;98567.31;5049325;28;20448;-72
2023/02/03 10:30:43;;;;;;;3.80;2.10;;;6.10;99.90;;;5.10;100.00;98562.88;5041905;28;20496;-72
2023/02/03 10:33:15;;;;;;;2.50;1.90;;;6.20;99.90;;;5.37;100.00;98568.19;5034253;28;20398;-74
2023/02/03 10:35:49;;;;;;;2.85;1.98;;;6.40;99.90;;;5.39;100.00;98571.44;5045565;28;20488;-73